Time;durP1;ratioP1;P1;durP2;ratioP2;P2;SDS_P1;SDS_P2;PMS_P1;PMS_P2;Temp;Humidity;BMP_temperature;BMP_pressure;BME280_temperature;BME280_humidity;BME280_pressure;Samples;Min_cycle;Max_cycle;Signal;HPM_P1;HPM_P2
2022/08/27 00:00:26;;;;;;;;;;;;;;;21.05;90.51;100254.81;4961605;29;1159;-86
2022/08/27 00:02:51;;;;;;;;;;;;;;;21.06;91.69;100251.69;4961520;28;1312;-86
2022/08/27 00:05:17;;;;;;;;;;;;;;;20.99;91.44;100248.72;4961618;28;1960;-86
2022/08/27 00:07:42;;;;;;;;;;;;;;;21.00;92.06;100243.97;4962189;29;1279;-86
2022/08/27 00:10:10;;;;;;;;;;;;;;;20.96;92.55;100240.25;4961742;29;1257;-86
2022/08/27 00:12:36;;;;;;;;;;;;;;;20.94;91.00;100243.41;4957892;28;1296;-87
2022/08/27 00:15:02;;;;;;;;;;;;;;;20.85;90.33;100247.50;4958141;28;1347;-87
2022/08/27 00:17:31;;;;;;;;;;;;;;;20.86;91.12;100243.56;4958523;29;1285;-87
2022/08/27 00:19:57;;;;;;;;;;;;;;;20.80;90.94;100250.56;4958347;29;1459;-88
2022/08/27 00:22:22;;;;;;;;;;;;;;;20.85;90.67;100251.09;4959040;29;1500;-86
2022/08/27 00:24:47;;;;;;;;;;;;;;;20.88;90.50;100246.81;4958513;29;1886;-88
2022/08/27 00:27:12;;;;;;;;;;;;;;;20.82;90.38;100239.88;4959180;29;1063;-86
2022/08/27 00:29:37;;;;;;;;;;;;;;;20.74;91.03;100242.47;4959460;29;1189;-86
2022/08/27 00:32:02;;;;;;;;;;;;;;;20.85;90.74;100242.75;4959053;29;1329;-85
2022/08/27 00:34:28;;;;;;;;;;;;;;;20.82;90.43;100246.25;4959309;29;1158;-87
2022/08/27 00:36:53;;;;;;;;;;;;;;;20.82;90.24;100246.25;4957455;29;1325;-87
2022/08/27 00:39:19;;;;;;;;;;;;;;;20.80;90.80;100251.38;4957459;29;1288;-86
2022/08/27 00:41:44;;;;;;;;;;;;;;;20.62;90.38;100259.19;4957338;29;1264;-87
2022/08/27 00:44:10;;;;;;;;;;;;;;;20.54;90.93;100256.56;4957373;29;1244;-87
2022/08/27 00:46:40;;;;;;;;;;;;;;;20.60;90.75;100260.72;4957006;29;1961;-87
2022/08/27 00:49:11;;;;;;;;;;;;;;;20.54;91.08;100262.13;4957102;29;1341;-87
2022/08/27 00:51:37;;;;;;;;;;;;;;;20.51;91.13;100254.47;4956991;29;1297;-86
2022/08/27 00:54:03;;;;;;;;;;;;;;;20.32;91.21;100255.13;4957297;29;1400;-87
2022/08/27 00:56:31;;;;;;;;;;;;;;;20.42;90.79;100260.19;4957450;29;1171;-87
2022/08/27 00:58:56;;;;;;;;;;;;;;;20.44;90.63;100248.72;4956944;29;1310;-87
2022/08/27 01:01:27;;;;;;;;;;;;;;;20.45;90.68;100247.56;4957113;29;1118;-88
2022/08/27 01:03:54;;;;;;;;;;;;;;;20.44;90.67;100252.31;4956914;29;1340;-87
2022/08/27 01:06:20;;;;;;;;;;;;;;;20.33;90.42;100249.19;4957020;29;1967;-87
2022/08/27 01:09:02;;;;;;;;;;;;;;;20.34;90.14;100259.16;4956986;29;1272;-87
2022/08/27 01:11:27;;;;;;;;;;;;;;;20.36;90.16;100256.03;4957184;29;1411;-87
2022/08/27 01:13:52;;;;;;;;;;;;;;;20.29;90.91;100253.03;4956571;29;1275;-87
2022/08/27 01:16:20;;;;;;;;;;;;;;;20.32;90.42;100258.72;4956752;29;1289;-87
2022/08/27 01:18:46;;;;;;;;;;;;;;;20.37;90.46;100263.22;4956371;29;1178;-87
2022/08/27 01:21:21;;;;;;;;;;;;;;;20.28;90.62;100263.34;4956552;29;1298;-87
2022/08/27 01:24:00;;;;;;;;;;;;;;;20.38;90.48;100264.84;4958051;28;790;-87
2022/08/27 01:26:25;;;;;;;;;;;;;;;20.36;89.86;100267.97;4956267;29;1959;-86
2022/08/27 01:28:51;;;;;;;;;;;;;;;20.38;89.97;100267.63;4956829;29;1431;-87
2022/08/27 01:31:17;;;;;;;;;;;;;;;20.24;90.45;100265.22;4956410;29;1217;-87
2022/08/27 01:33:52;;;;;;;;;;;;;;;20.30;90.40;100268.56;4956477;29;851;-86
2022/08/27 01:36:17;;;;;;;;;;;;;;;20.22;90.84;100278.66;4956580;29;1221;-86
2022/08/27 01:38:42;;;;;;;;;;;;;;;20.11;90.99;100271.13;4956036;29;1193;-86
2022/08/27 01:41:08;;;;;;;;;;;;;;;20.13;91.09;100279.94;4956268;29;1314;-86
2022/08/27 01:43:33;;;;;;;;;;;;;;;20.14;90.68;100278.78;4956337;29;1129;-88
2022/08/27 01:45:58;;;;;;;;;;;;;;;20.11;90.45;100279.47;4956137;29;1898;-86
2022/08/27 01:48:23;;;;;;;;;;;;;;;20.07;91.20;100275.78;4956283;29;1206;-86
2022/08/27 01:50:49;;;;;;;;;;;;;;;20.21;90.71;100276.22;4957841;29;807;-86
2022/08/27 01:53:15;;;;;;;;;;;;;;;20.11;91.26;100287.81;4956296;29;1382;-88
2022/08/27 01:55:42;;;;;;;;;;;;;;;20.16;91.13;100282.03;4956067;29;1341;-88
2022/08/27 01:58:07;;;;;;;;;;;;;;;20.23;91.10;100285.00;4956059;29;1210;-88
2022/08/27 02:00:35;;;;;;;;;;;;;;;20.19;90.47;100292.41;4956392;29;1365;-86
2022/08/27 02:03:01;;;;;;;;;;;;;;;20.22;90.74;100294.50;4956124;29;1360;-86
2022/08/27 02:05:27;;;;;;;;;;;;;;;20.12;91.20;100293.00;4956706;29;1898;-86
2022/08/27 02:07:53;;;;;;;;;;;;;;;20.00;91.51;100287.47;4956470;29;1316;-86
2022/08/27 02:10:28;;;;;;;;;;;;;;;19.99;91.71;100281.09;4956230;29;1336;-86
2022/08/27 02:12:53;;;;;;;;;;;;;;;20.08;91.96;100282.94;4956081;29;1217;-86
2022/08/27 02:15:18;;;;;;;;;;;;;;;20.02;91.63;100279.59;4956440;29;1218;-87
2022/08/27 02:17:43;;;;;;;;;;;;;;;20.03;91.63;100276.47;4958320;28;782;-86
2022/08/27 02:20:09;;;;;;;;;;;;;;;20.07;91.63;100281.34;4957737;29;1214;-86
2022/08/27 02:22:35;;;;;;;;;;;;;;;20.00;92.10;100276.34;4958266;28;916;-86
2022/08/27 02:25:00;;;;;;;;;;;;;;;20.09;91.10;100279.00;4957194;28;1898;-87
2022/08/27 02:27:26;;;;;;;;;;;;;;;20.02;91.82;100285.97;4955915;29;1261;-88
2022/08/27 02:29:51;;;;;;;;;;;;;;;20.03;91.65;100284.00;4956320;29;1293;-87
2022/08/27 02:32:16;;;;;;;;;;;;;;;20.10;90.99;100280.63;4955694;29;1009;-87
2022/08/27 02:34:41;;;;;;;;;;;;;;;20.00;91.86;100282.72;4955683;28;1177;-87
2022/08/27 02:37:06;;;;;;;;;;;;;;;20.05;91.15;100276.13;4955409;29;1264;-87
2022/08/27 02:39:32;;;;;;;;;;;;;;;19.97;91.14;100283.44;5004017;23;1879;-87
2022/08/27 02:41:57;;;;;;;;;;;;;;;19.93;91.41;100276.94;4974487;28;1797;-87
2022/08/27 02:44:22;;;;;;;;;;;;;;;20.05;91.46;100289.22;4980436;28;1918;-88
2022/08/27 02:46:47;;;;;;;;;;;;;;;20.05;91.14;100280.88;4963493;28;1732;-88
2022/08/27 02:49:14;;;;;;;;;;;;;;;19.97;91.04;100283.44;4981346;28;1487;-87
2022/08/27 02:51:39;;;;;;;;;;;;;;;19.88;91.47;100290.25;4994106;28;1115;-86
2022/08/27 02:54:04;;;;;;;;;;;;;;;19.92;92.02;100286.44;4975715;28;1398;-88
2022/08/27 02:56:29;;;;;;;;;;;;;;;20.03;91.21;100284.81;4984619;28;1079;-88
2022/08/27 02:58:54;;;;;;;;;;;;;;;19.96;91.45;100287.38;4994217;28;980;-87
2022/08/27 03:01:20;;;;;;;;;;;;;;;20.04;91.40;100280.06;4967297;28;1736;-88
2022/08/27 03:03:45;;;;;;;;;;;;;;;19.94;91.44;100283.31;4957095;28;1737;-87
2022/08/27 03:06:11;;;;;;;;;;;;;;;19.97;91.99;100282.63;4956800;28;1907;-87
2022/08/27 03:08:36;;;;;;;;;;;;;;;20.05;91.71;100278.09;4960895;28;1705;-88
2022/08/27 03:11:02;;;;;;;;;;;;;;;19.96;91.87;100286.56;4971214;28;1427;-88
2022/08/27 03:13:27;;;;;;;;;;;;;;;19.89;91.45;100286.34;4960078;28;1702;-87
2022/08/27 03:15:52;;;;;;;;;;;;;;;19.83;91.61;100290.47;4973894;28;1865;-88
2022/08/27 03:18:18;;;;;;;;;;;;;;;19.81;91.19;100278.94;4957070;28;1764;-86
2022/08/27 03:20:45;;;;;;;;;;;;;;;19.82;91.44;100275.00;4956576;28;1634;-88
2022/08/27 03:23:10;;;;;;;;;;;;;;;19.77;91.56;100283.53;4966710;28;1538;-88
2022/08/27 03:25:36;;;;;;;;;;;;;;;19.75;92.19;100283.88;4967991;28;1902;-88
2022/08/27 03:28:01;;;;;;;;;;;;;;;19.87;91.43;100278.34;4964734;28;1797;-86
2022/08/27 03:30:27;;;;;;;;;;;;;;;19.84;91.72;100279.03;4950256;28;1714;-90
2022/08/27 03:32:52;;;;;;;;;;;;;;;19.87;91.60;100292.22;4953622;28;1733;-88
2022/08/27 03:35:18;;;;;;;;;;;;;;;19.75;91.88;100289.44;4962823;28;1379;-88
2022/08/27 03:37:43;;;;;;;;;;;;;;;19.88;91.52;100284.72;4981685;28;1572;-88
2022/08/27 03:40:09;;;;;;;;;;;;;;;19.78;91.34;100280.41;4955222;28;1385;-89
2022/08/27 03:42:34;;;;;;;;;;;;;;;19.84;91.06;100289.31;4986445;28;1427;-87
2022/08/27 03:45:00;;;;;;;;;;;;;;;19.87;91.96;100294.19;4956741;28;1910;-88
2022/08/27 03:47:25;;;;;;;;;;;;;;;19.94;91.51;100289.69;4954821;28;1402;-88
2022/08/27 03:49:50;;;;;;;;;;;;;;;19.91;90.87;100284.00;4970639;28;1488;-88
2022/08/27 03:52:15;;;;;;;;;;;;;;;19.79;91.10;100286.78;4988636;28;1368;-88
2022/08/27 03:54:40;;;;;;;;;;;;;;;19.77;90.86;100291.88;4977764;28;965;-88
2022/08/27 03:57:06;;;;;;;;;;;;;;;19.85;90.99;100293.72;4960130;28;1420;-88
2022/08/27 03:59:32;;;;;;;;;;;;;;;19.87;91.19;100283.09;4960441;28;1460;-88
2022/08/27 04:01:57;;;;;;;;;;;;;;;19.72;90.86;100290.16;4964117;28;1359;-88
2022/08/27 04:04:23;;;;;;;;;;;;;;;19.74;91.25;100287.81;4985785;28;1136;-88
2022/08/27 04:06:48;;;;;;;;;;;;;;;19.73;90.97;100291.78;4977172;28;1961;-88
2022/08/27 04:09:13;;;;;;;;;;;;;;;19.73;91.73;100288.19;4977948;28;1405;-87
2022/08/27 04:11:38;;;;;;;;;;;;;;;19.56;92.22;100290.00;4977297;28;1473;-87
2022/08/27 04:14:05;;;;;;;;;;;;;;;19.55;91.44;100293.16;4948746;28;1658;-88
2022/08/27 04:16:31;;;;;;;;;;;;;;;19.53;91.49;100289.91;4963964;28;1785;-89
2022/08/27 04:18:56;;;;;;;;;;;;;;;19.55;91.56;100288.41;4965977;28;1308;-89
2022/08/27 04:21:22;;;;;;;;;;;;;;;19.71;91.43;100296.84;4977504;28;1854;-88
2022/08/27 04:23:47;;;;;;;;;;;;;;;19.81;91.12;100295.59;4982479;28;1394;-87
2022/08/27 04:26:13;;;;;;;;;;;;;;;19.71;90.65;100302.41;4976770;28;2000;-87
2022/08/27 04:28:38;;;;;;;;;;;;;;;19.70;90.79;100311.91;4959942;28;1761;-87
2022/08/27 04:31:04;;;;;;;;;;;;;;;19.58;90.60;100314.66;4958755;28;1654;-88
2022/08/27 04:33:31;;;;;;;;;;;;;;;19.54;90.66;100311.78;4969505;28;1459;-86
2022/08/27 04:35:57;;;;;;;;;;;;;;;19.32;91.60;100312.13;4963051;28;1713;-87
2022/08/27 04:38:22;;;;;;;;;;;;;;;19.27;91.79;100315.97;4966429;28;1447;-88
2022/08/27 04:43:31;;;;;;;;;;;;;;;19.30;90.40;100308.94;4976781;28;1425;-86
2022/08/27 04:45:56;;;;;;;;;;;;;;;19.26;90.96;100308.78;4968755;28;1890;-88
2022/08/27 04:48:22;;;;;;;;;;;;;;;19.33;91.61;100318.50;4967974;28;1486;-87
2022/08/27 04:50:47;;;;;;;;;;;;;;;19.37;91.18;100309.16;4976834;28;1308;-87
2022/08/27 04:53:13;;;;;;;;;;;;;;;19.41;91.48;100309.28;4975997;28;1544;-87
2022/08/27 04:55:42;;;;;;;;;;;;;;;19.31;90.89;100316.06;4959246;28;1804;-87
2022/08/27 04:58:07;;;;;;;;;;;;;;;19.24;90.59;100321.38;4947365;28;1412;-88
2022/08/27 05:00:32;;;;;;;;;;;;;;;19.28;91.46;100309.25;4968643;28;1951;-87
2022/08/27 05:02:58;;;;;;;;;;;;;;;19.42;91.00;100311.72;4986304;28;1555;-85
2022/08/27 05:05:25;;;;;;;;;;;;;;;19.42;91.10;100310.91;4959103;28;1948;-87
2022/08/27 05:07:50;;;;;;;;;;;;;;;19.40;90.95;100308.47;4976381;28;1690;-88
2022/08/27 05:10:15;;;;;;;;;;;;;;;19.41;91.01;100307.31;4976512;28;1832;-88
2022/08/27 05:12:41;;;;;;;;;;;;;;;19.43;89.57;100305.00;4958518;28;1789;-87
2022/08/27 05:15:07;;;;;;;;;;;;;;;19.39;89.64;100314.38;4980238;28;1761;-87
2022/08/27 05:17:32;;;;;;;;;;;;;;;19.42;89.55;100310.91;4984482;28;1503;-88
2022/08/27 05:19:57;;;;;;;;;;;;;;;19.39;89.77;100312.41;4975161;28;1842;-88
2022/08/27 05:22:22;;;;;;;;;;;;;;;19.27;89.91;100321.50;4959854;28;1880;-87
2022/08/27 05:24:48;;;;;;;;;;;;;;;19.34;90.69;100314.59;5007894;28;1871;-87
2022/08/27 05:27:13;;;;;;;;;;;;;;;19.40;90.61;100314.00;4981404;28;1484;-86
2022/08/27 05:29:38;;;;;;;;;;;;;;;19.27;90.25;100320.69;4988894;28;1341;-88
2022/08/27 05:32:03;;;;;;;;;;;;;;;19.22;90.39;100329.25;4967204;28;1489;-88
2022/08/27 05:34:29;;;;;;;;;;;;;;;19.29;90.01;100326.72;4958206;28;1725;-88
2022/08/27 05:36:54;;;;;;;;;;;;;;;19.26;89.66;100328.22;4963721;28;1251;-89
2022/08/27 05:39:20;;;;;;;;;;;;;;;19.31;89.55;100320.84;4987321;28;1279;-88
2022/08/27 05:41:45;;;;;;;;;;;;;;;19.24;90.29;100321.38;4967192;28;1568;-88
2022/08/27 05:44:10;;;;;;;;;;;;;;;19.22;90.35;100330.03;4975403;28;1618;-88
2022/08/27 05:46:37;;;;;;;;;;;;;;;19.33;90.30;100324.88;4964898;28;1882;-86
2022/08/27 05:49:02;;;;;;;;;;;;;;;19.37;89.44;100331.38;4975560;28;1729;-88
2022/08/27 05:51:29;;;;;;;;;;;;;;;19.25;88.83;100321.03;4972152;28;1622;-88
2022/08/27 05:54:00;;;;;;;;;;;;;;;19.09;91.18;100331.16;4947507;28;1363;-88
2022/08/27 05:56:27;;;;;;;;;;;;;;;19.12;90.04;100324.94;4987945;28;1403;-87
2022/08/27 06:01:41;;;;;;;;;;;;;;;19.17;89.48;100329.44;4962339;28;1580;-88
2022/08/27 06:04:07;;;;;;;;;;;;;;;19.14;89.06;100328.16;4953843;28;1773;-89
2022/08/27 06:06:34;;;;;;;;;;;;;;;19.17;89.43;100329.44;4954015;29;1890;-88
2022/08/27 06:08:59;;;;;;;;;;;;;;;19.26;90.14;100339.31;4961613;28;1342;-88
2022/08/27 06:11:24;;;;;;;;;;;;;;;19.10;89.47;100335.56;4971974;28;1435;-88
2022/08/27 06:13:49;;;;;;;;;;;;;;;19.12;89.18;100333.25;4957515;28;1769;-88
2022/08/27 06:16:16;;;;;;;;;;;;;;;19.11;88.84;100330.81;4957630;28;1457;-88
2022/08/27 06:18:43;;;;;;;;;;;;;;;19.08;89.90;100335.09;4957613;28;1583;-87
2022/08/27 06:21:09;;;;;;;;;;;;;;;18.99;90.21;100337.13;4973487;28;1387;-88
2022/08/27 06:23:35;;;;;;;;;;;;;;;18.90;89.67;100330.84;4965967;28;1812;-88
2022/08/27 06:26:00;;;;;;;;;;;;;;;19.09;90.51;100341.44;4968205;28;1894;-88
2022/08/27 06:28:30;;;;;;;;;;;;;;;19.25;90.52;100343.25;4973379;28;1773;-88
2022/08/27 06:31:05;;;;;;;;;;;;;;;19.28;89.29;100345.34;4957747;28;1280;-88
2022/08/27 06:33:31;;;;;;;;;;;;;;;19.02;90.72;100341.19;4959682;28;1404;-88
2022/08/27 06:35:59;;;;;;;;;;;;;;;19.03;90.10;100346.41;4973845;28;1434;-88
2022/08/27 06:38:25;;;;;;;;;;;;;;;19.05;88.87;100346.88;4984289;28;1516;-87
2022/08/27 06:40:51;;;;;;;;;;;;;;;19.16;88.58;100344.47;4960611;28;1389;-89
2022/08/27 06:43:16;;;;;;;;;;;;;;;19.14;88.89;100344.03;4958382;28;1318;-90
2022/08/27 06:45:41;;;;;;;;;;;;;;;19.14;88.91;100350.34;4974488;28;1945;-89
2022/08/27 06:48:06;;;;;;;;;;;;;;;19.08;89.26;100350.91;4957065;28;1737;-91
2022/08/27 06:50:36;;;;;;;;;;;;;;;18.93;89.73;100346.00;4957952;28;1304;-91
2022/08/27 06:53:01;;;;;;;;;;;;;;;19.14;90.22;100344.81;4956831;28;1386;-86
2022/08/27 06:55:26;;;;;;;;;;;;;;;19.08;88.95;100351.72;4978482;28;1475;-88
2022/08/27 06:57:51;;;;;;;;;;;;;;;19.04;89.86;100350.81;4962407;28;1127;-88
2022/08/27 07:00:16;;;;;;;;;;;;;;;18.93;89.54;100344.03;4976879;28;1289;-87
2022/08/27 07:02:42;;;;;;;;;;;;;;;19.08;90.25;100348.97;4969608;28;1405;-87
2022/08/27 07:05:08;;;;;;;;;;;;;;;19.14;88.56;100355.13;4983786;28;1957;-86
2022/08/27 07:07:33;;;;;;;;;;;;;;;18.99;89.94;100352.97;4958028;28;1448;-85
2022/08/27 07:09:58;;;;;;;;;;;;;;;19.01;90.12;100356.22;4960800;28;1359;-86
2022/08/27 07:12:24;;;;;;;;;;;;;;;19.12;89.53;100362.97;4965340;28;1374;-86
2022/08/27 07:14:49;;;;;;;;;;;;;;;19.02;90.18;100364.19;4972720;28;1319;-85
2022/08/27 07:17:16;;;;;;;;;;;;;;;18.84;90.46;100365.50;4973378;28;1220;-86
2022/08/27 07:19:41;;;;;;;;;;;;;;;18.92;90.35;100370.16;4972846;28;1517;-85
2022/08/27 07:22:06;;;;;;;;;;;;;;;19.01;90.37;100370.91;4963046;28;1378;-87
2022/08/27 07:24:31;;;;;;;;;;;;;;;19.04;89.87;100369.41;4977855;28;1894;-87
2022/08/27 07:26:57;;;;;;;;;;;;;;;19.12;89.69;100368.53;4978269;28;779;-87
2022/08/27 07:29:23;;;;;;;;;;;;;;;19.19;89.31;100372.38;4978181;28;1578;-86
2022/08/27 07:31:48;;;;;;;;;;;;;;;19.16;89.62;100378.59;4982809;28;1361;-86
2022/08/27 07:34:13;;;;;;;;;;;;;;;19.16;89.44;100363.91;4964253;28;1366;-87
2022/08/27 07:36:39;;;;;;;;;;;;;;;19.10;89.66;100362.50;4970966;28;1444;-88
2022/08/27 07:39:05;;;;;;;;;;;;;;;19.08;89.30;100373.94;4989166;28;1265;-86
2022/08/27 07:41:30;;;;;;;;;;;;;;;19.08;89.47;100368.38;4976505;28;1278;-86
2022/08/27 07:46:39;;;;;;;;;;;;;;;19.05;89.55;100380.19;4958887;29;1902;-87
2022/08/27 07:49:04;;;;;;;;;;;;;;;18.89;90.38;100377.19;4975147;28;1441;-86
2022/08/27 07:51:31;;;;;;;;;;;;;;;18.92;90.56;100381.25;4997416;28;1134;-87
2022/08/27 07:53:56;;;;;;;;;;;;;;;18.99;91.13;100384.28;4972201;28;1366;-86
2022/08/27 07:56:22;;;;;;;;;;;;;;;18.94;91.08;100376.19;4978048;28;981;-86
2022/08/27 07:58:47;;;;;;;;;;;;;;;19.15;91.19;100385.28;4982363;28;913;-88
2022/08/27 08:01:12;;;;;;;;;;;;;;;18.92;90.23;100391.53;4965926;28;1427;-85
2022/08/27 08:03:38;;;;;;;;;;;;;;;18.95;90.17;100391.69;4969075;28;1522;-87
2022/08/27 08:06:07;;;;;;;;;;;;;;;19.01;91.46;100395.06;4981346;28;1898;-87
2022/08/27 08:08:34;;;;;;;;;;;;;;;18.99;91.17;100391.78;4971148;28;1515;-87
2022/08/27 08:11:01;;;;;;;;;;;;;;;18.91;91.04;100387.94;4958281;28;1638;-87
2022/08/27 08:13:27;;;;;;;;;;;;;;;18.97;89.69;100391.34;4956981;29;1303;-85
2022/08/27 08:15:52;;;;;;;;;;;;;;;19.04;90.00;100391.59;4951374;28;1610;-86
2022/08/27 08:18:17;;;;;;;;;;;;;;;18.88;90.84;100400.53;4974551;28;1711;-87
2022/08/27 08:20:42;;;;;;;;;;;;;;;18.72;91.22;100393.16;4971488;28;1726;-87
2022/08/27 08:23:07;;;;;;;;;;;;;;;19.00;90.66;100398.97;4971483;28;1379;-86
2022/08/27 08:25:33;;;;;;;;;;;;;;;19.05;90.14;100402.38;4955614;28;1937;-87
2022/08/27 08:27:59;;;;;;;;;;;;;;;18.95;90.10;100402.78;4958880;28;1520;-87
2022/08/27 08:30:24;;;;;;;;;;;;;;;19.13;90.13;100406.22;4959339;28;1717;-87
2022/08/27 08:32:50;;;;;;;;;;;;;;;18.99;89.62;100402.88;4969512;28;1862;-85
2022/08/27 08:35:16;;;;;;;;;;;;;;;18.97;89.66;100400.44;4987276;28;1392;-87
2022/08/27 08:37:42;;;;;;;;;;;;;;;18.79;89.14;100407.31;4971726;28;1618;-86
2022/08/27 08:40:08;;;;;;;;;;;;;;;18.80;89.08;100409.72;4987027;23;1995;-89
2022/08/27 08:42:42;;;;;;;;;;;;;;;18.88;90.28;100405.28;4980807;28;1588;-88
2022/08/27 08:45:10;;;;;;;;;;;;;;;19.05;89.67;100401.56;4974215;28;1903;-86
2022/08/27 08:47:47;;;;;;;;;;;;;;;19.26;88.83;100403.13;4975382;28;1761;-88
2022/08/27 08:50:18;;;;;;;;;;;;;;;19.27;88.37;100406.72;4941332;29;1755;-87
2022/08/27 08:52:58;;;;;;;;;;;;;;;19.30;87.35;100405.25;4955993;28;1293;-88
2022/08/27 08:55:45;;;;;;;;;;;;;;;19.14;88.58;100405.84;4940189;29;1302;-88
2022/08/27 08:58:18;;;;;;;;;;;;;;;19.35;87.93;100405.03;4957550;29;833;-88
2022/08/27 09:00:44;;;;;;;;;;;;;;;19.41;87.66;100412.78;4940057;29;1317;-88
2022/08/27 09:03:11;;;;;;;;;;;;;;;19.59;87.42;100399.56;4956858;29;1432;-87
2022/08/27 09:05:39;;;;;;;;;;;;;;;19.68;87.08;100403.06;4940018;29;1969;-87
2022/08/27 09:08:07;;;;;;;;;;;;;;;19.62;87.87;100402.47;4940034;29;1202;-87
2022/08/27 09:10:56;;;;;;;;;;;;;;;19.87;87.90;100397.78;4939842;29;1300;-87
2022/08/27 09:13:29;;;;;;;;;;;;;;;19.55;86.45;100395.88;4936885;29;1386;-87
2022/08/27 09:16:17;;;;;;;;;;;;;;;19.89;86.08;100398.25;4937781;29;826;-88
2022/08/27 09:18:44;;;;;;;;;;;;;;;19.97;85.23;100402.09;4931333;29;1308;-88
2022/08/27 09:21:17;;;;;;;;;;;;;;;19.87;86.24;100400.56;4936525;29;1281;-88
2022/08/27 09:24:01;;;;;;;;;;;;;;;19.98;85.39;100401.75;4937610;29;897;-88
2022/08/27 09:26:28;;;;;;;;;;;;;;;20.09;85.60;100395.69;4936531;29;1895;-87
2022/08/27 09:29:16;;;;;;;;;;;;;;;20.00;84.87;100395.81;4938641;29;1623;-88
2022/08/27 09:31:59;;;;;;;;;;;;;;;20.06;84.63;100394.44;4936375;29;1371;-87
2022/08/27 09:34:26;;;;;;;;;;;;;;;20.14;84.98;100395.50;4937246;29;956;-88
2022/08/27 09:37:11;;;;;;;;;;;;;;;20.23;85.80;100396.19;4938071;29;849;-85
2022/08/27 09:39:39;;;;;;;;;;;;;;;20.16;84.25;100395.97;4938267;29;1273;-85
2022/08/27 09:42:05;;;;;;;;;;;;;;;20.17;84.99;100387.25;4949513;29;1530;-85
2022/08/27 09:44:31;;;;;;;;;;;;;;;20.23;85.35;100388.66;4946287;29;1474;-85
2022/08/27 09:46:58;;;;;;;;;;;;;;;20.23;85.54;100394.22;4921343;29;1958;-88
2022/08/27 09:49:24;;;;;;;;;;;;;;;19.89;85.02;100397.44;4937176;29;1305;-87
2022/08/27 09:51:50;;;;;;;;;;;;;;;19.96;84.88;100403.22;4920372;29;1289;-88
2022/08/27 09:54:30;;;;;;;;;;;;;;;19.88;85.43;100402.19;4937139;29;850;-87
2022/08/27 09:56:57;;;;;;;;;;;;;;;19.74;85.94;100404.47;4936011;29;1479;-87
2022/08/27 09:59:25;;;;;;;;;;;;;;;19.72;85.81;100405.97;4937000;29;1213;-87
2022/08/27 10:02:03;;;;;;;;;;;;;;;19.76;85.61;100406.91;4951381;29;1499;-88
2022/08/27 10:04:34;;;;;;;;;;;;;;;19.88;85.82;100399.41;4954936;28;1265;-89
2022/08/27 10:07:13;;;;;;;;;;;;;;;20.00;85.65;100399.41;4938950;29;1965;-89
2022/08/27 10:09:41;;;;;;;;;;;;;;;19.92;84.93;100400.31;4938960;28;1332;-88
2022/08/27 10:12:24;;;;;;;;;;;;;;;19.91;85.06;100406.22;4955859;29;1635;-87
2022/08/27 10:14:51;;;;;;;;;;;;;;;19.89;84.87;100403.81;4936683;29;952;-86
2022/08/27 10:17:39;;;;;;;;;;;;;;;20.00;85.05;100396.63;4935619;29;1206;-87
2022/08/27 10:20:10;;;;;;;;;;;;;;;20.12;84.58;100395.03;4935496;29;1308;-86
2022/08/27 10:22:40;;;;;;;;;;;;;;;20.18;84.33;100393.63;4951708;29;1347;-87
2022/08/27 10:25:08;;;;;;;;;;;;;;;20.10;83.47;100394.56;4941732;29;1898;-87
2022/08/27 10:27:45;;;;;;;;;;;;;;;20.19;83.73;100390.50;4956122;29;866;-87
2022/08/27 10:30:13;;;;;;;;;;;;;;;20.23;83.72;100390.63;4955775;29;1297;-86
2022/08/27 10:32:50;;;;;;;;;;;;;;;20.24;83.60;100395.03;4938612;29;1276;-85
2022/08/27 10:35:21;;;;;;;;;;;;;;;20.22;83.63;100391.78;4954441;29;1270;-87
2022/08/27 10:37:58;;;;;;;;;;;;;;;20.26;83.74;100393.50;4936072;29;1360;-86
2022/08/27 10:40:35;;;;;;;;;;;;;;;20.25;83.59;100391.06;4953857;29;1490;-87
2022/08/27 10:43:11;;;;;;;;;;;;;;;20.25;83.88;100389.09;4954831;29;1597;-85
2022/08/27 10:45:43;;;;;;;;;;;;;;;20.30;84.98;100396.41;4954661;29;1890;-87
2022/08/27 10:48:27;;;;;;;;;;;;;;;20.20;84.48;100402.44;4954358;28;1458;-87
2022/08/27 10:50:56;;;;;;;;;;;;;;;20.14;84.30;100406.59;4954368;29;1328;-89
2022/08/27 10:53:29;;;;;;;;;;;;;;;20.15;84.16;100405.47;4937775;29;1369;-89
2022/08/27 10:56:15;;;;;;;;;;;;;;;20.03;84.54;100398.72;4938282;29;1328;-88
2022/08/27 10:58:52;;;;;;;;;;;;;;;19.93;84.54;100401.94;4934196;29;1804;-86
2022/08/27 11:01:20;;;;;;;;;;;;;;;20.03;84.48;100400.69;4938430;29;1314;-85
2022/08/27 11:03:59;;;;;;;;;;;;;;;20.12;84.83;100395.03;4955479;29;830;-86
2022/08/27 11:06:29;;;;;;;;;;;;;;;20.11;84.29;100408.09;4953179;29;1960;-86
2022/08/27 11:08:57;;;;;;;;;;;;;;;20.05;85.07;100405.91;4937621;29;1513;-87
2022/08/27 11:11:35;;;;;;;;;;;;;;;20.00;84.25;100409.72;4937690;29;1453;-86
2022/08/27 11:14:04;;;;;;;;;;;;;;;19.94;83.10;100414.69;4953880;28;1802;-84
2022/08/27 11:16:38;;;;;;;;;;;;;;;19.90;83.34;100408.22;4956904;29;1120;-85
2022/08/27 11:19:22;;;;;;;;;;;;;;;19.88;84.07;100407.75;4942341;29;1629;-84
2022/08/27 11:22:00;;;;;;;;;;;;;;;19.95;83.64;100404.38;4955468;28;1334;-86
2022/08/27 11:24:33;;;;;;;;;;;;;;;19.95;83.58;100401.59;4954277;29;1583;-86
2022/08/27 11:27:01;;;;;;;;;;;;;;;19.74;84.78;100407.22;4955432;29;2190;-85
2022/08/27 11:29:31;;;;;;;;;;;;;;;19.79;84.66;100409.81;4956526;29;1621;-85
2022/08/27 11:32:04;;;;;;;;;;;;;;;19.87;84.46;100405.31;4954134;29;1717;-87
2022/08/27 11:34:40;;;;;;;;;;;;;;;19.85;84.36;100402.88;4955027;29;811;-86
2022/08/27 11:37:10;;;;;;;;;;;;;;;19.76;83.97;100406.91;4938793;29;1150;-85
2022/08/27 11:39:48;;;;;;;;;;;;;;;19.94;82.92;100405.53;4956357;29;1861;-86
2022/08/27 11:42:13;;;;;;;;;;;;;;;20.01;82.99;100419.66;4956587;28;1396;-86
2022/08/27 11:44:40;;;;;;;;;;;;;;;19.89;82.95;100411.34;4937466;29;1485;-87
2022/08/27 11:47:10;;;;;;;;;;;;;;;19.99;83.33;100414.44;4946259;29;1899;-86
2022/08/27 11:49:41;;;;;;;;;;;;;;;19.97;83.08;100414.00;4943913;29;1384;-86
2022/08/27 11:52:07;;;;;;;;;;;;;;;20.07;83.70;100409.97;4950381;29;1317;-86
2022/08/27 11:54:44;;;;;;;;;;;;;;;19.94;83.05;100414.69;4955296;29;1642;-86
2022/08/27 11:57:24;;;;;;;;;;;;;;;19.86;83.72;100415.59;4954288;29;1584;-86
2022/08/27 11:59:50;;;;;;;;;;;;;;;19.92;84.19;100417.00;4955181;29;1241;-86
2022/08/27 12:02:26;;;;;;;;;;;;;;;19.95;83.87;100421.88;4956764;29;807;-86
2022/08/27 12:04:54;;;;;;;;;;;;;;;19.84;83.64;100429.03;4940015;29;1890;-86
2022/08/27 12:07:20;;;;;;;;;;;;;;;19.63;84.56;100426.31;4956152;28;988;-86
2022/08/27 12:09:53;;;;;;;;;;;;;;;19.68;84.46;100433.63;4960086;29;1514;-86
2022/08/27 12:12:29;;;;;;;;;;;;;;;19.61;85.70;100436.97;4961332;29;870;-86
2022/08/27 12:15:06;;;;;;;;;;;;;;;19.56;86.34;100436.38;4961518;29;1068;-86
2022/08/27 12:17:46;;;;;;;;;;;;;;;19.43;86.07;100437.44;4961564;29;1339;-86
2022/08/27 12:20:24;;;;;;;;;;;;;;;19.53;85.30;100439.81;4959652;29;1319;-86
2022/08/27 12:26:12;;;;;;;;;;;;;;;19.57;86.42;100447.09;4940780;29;1930;-87
2022/08/27 12:28:37;;;;;;;;;;;;;;;19.74;86.07;100443.34;4940404;29;1282;-86
2022/08/27 12:31:05;;;;;;;;;;;;;;;19.74;86.01;100442.53;4924352;29;1205;-86
2022/08/27 12:33:53;;;;;;;;;;;;;;;19.82;86.50;100445.22;4939847;28;1420;-86
2022/08/27 12:36:24;;;;;;;;;;;;;;;19.85;85.69;100447.31;4939962;29;1557;-86
2022/08/27 12:38:52;;;;;;;;;;;;;;;19.88;85.01;100449.41;4960791;29;786;-86
2022/08/27 12:41:46;;;;;;;;;;;;;;;19.90;84.90;100444.34;4960862;29;1288;-85
2022/08/27 12:44:13;;;;;;;;;;;;;;;19.87;85.48;100453.34;4932199;29;1307;-85
2022/08/27 12:46:49;;;;;;;;;;;;;;;19.84;86.27;100455.97;4940394;29;1970;-86
2022/08/27 12:49:23;;;;;;;;;;;;;;;19.91;84.82;100453.44;4957687;29;861;-85
2022/08/27 12:51:48;;;;;;;;;;;;;;;19.93;85.28;100454.75;4938975;29;1721;-85
2022/08/27 12:54:32;;;;;;;;;;;;;;;19.92;84.68;100453.09;4939685;29;1610;-85
2022/08/27 12:56:57;;;;;;;;;;;;;;;20.21;84.37;100448.53;4942466;28;1164;-85
2022/08/27 12:59:34;;;;;;;;;;;;;;;20.15;85.10;100444.38;4938113;29;1197;-85
2022/08/27 13:02:14;;;;;;;;;;;;;;;20.16;84.73;100449.56;4938237;29;989;-86
2022/08/27 13:04:40;;;;;;;;;;;;;;;19.98;84.71;100448.97;4953820;29;1307;-85